createdAt,value
2018-03-27T00:00:55.132Z,76.73
2018-03-27T00:01:55.127Z,76.10
2018-03-27T00:02:55.117Z,76.15
2018-03-27T00:03:55.115Z,76.06
2018-03-27T00:04:55.104Z,76.06
2018-03-27T00:05:55.090Z,77.58
2018-03-27T00:06:55.084Z,77.67
2018-03-27T00:07:55.085Z,77.86
2018-03-27T00:08:55.071Z,77.86
2018-03-27T00:09:55.060Z,78.81
2018-03-27T00:10:55.057Z,79.76
2018-03-27T00:11:55.046Z,80.04
2018-03-27T00:12:55.037Z,79.76
2018-03-27T00:13:55.033Z,79.47
2018-03-27T00:14:55.028Z,79.66
2018-03-27T00:15:55.024Z,80.43
2018-03-27T00:16:55.016Z,80.14
2018-03-27T00:17:54.999Z,79.10
2018-03-27T00:18:54.993Z,77.96
2018-03-27T00:19:54.987Z,77.67
2018-03-27T00:20:54.981Z,77.20
2018-03-27T00:21:54.971Z,76.63
2018-03-27T00:22:54.974Z,76.63
2018-03-27T00:23:54.954Z,76.92
2018-03-27T00:24:54.948Z,76.48
2018-03-27T00:25:54.941Z,76.63
2018-03-27T00:26:54.933Z,76.63
2018-03-27T00:27:54.920Z,76.92
2018-03-27T00:28:54.918Z,77.62
2018-03-27T00:29:54.916Z,78.38
2018-03-27T00:30:54.901Z,78.85
2018-03-27T00:31:54.895Z,79.61
2018-03-27T00:32:54.884Z,79.61
2018-03-27T00:33:54.879Z,80.18
2018-03-27T00:34:54.871Z,80.33
2018-03-27T00:35:54.865Z,80.14
2018-03-27T00:36:54.850Z,79.38
2018-03-27T00:37:54.843Z,78.62
2018-03-27T00:38:54.838Z,78.24
2018-03-27T00:39:54.832Z,78.34
2018-03-27T00:40:54.824Z,79.10
2018-03-27T00:41:54.816Z,79.38
2018-03-27T00:42:54.810Z,79.95
2018-03-27T00:43:54.799Z,80.52
2018-03-27T00:44:54.796Z,81.27
2018-03-27T00:45:54.789Z,80.99
2018-03-27T00:46:54.777Z,80.99
2018-03-27T00:47:54.777Z,80.99
2018-03-27T00:48:54.761Z,81.18
2018-03-27T00:49:54.753Z,80.99
2018-03-27T00:50:54.746Z,80.52
2018-03-27T00:51:54.739Z,79.66
2018-03-27T00:52:54.726Z,79.85
2018-03-27T00:53:54.720Z,80.04
2018-03-27T00:54:54.718Z,80.71
2018-03-27T00:55:54.708Z,81.47
2018-03-27T00:56:54.702Z,82.23
2018-03-27T00:57:54.688Z,82.13
2018-03-27T00:58:54.685Z,82.23
2018-03-27T00:59:54.678Z,82.13
2018-03-27T01:00:54.671Z,82.89
2018-03-27T01:01:54.657Z,83.17
2018-03-27T01:02:54.653Z,82.98
2018-03-27T01:03:54.642Z,82.79
2018-03-27T01:04:54.638Z,83.65
2018-03-27T01:05:54.628Z,83.27
2018-03-27T01:06:54.618Z,83.36
2018-03-27T01:07:54.609Z,83.74
2018-03-27T01:08:54.605Z,83.94
2018-03-27T01:09:54.599Z,84.03
2018-03-27T01:10:54.590Z,83.94
2018-03-27T01:11:54.583Z,83.55
2018-03-27T01:12:54.574Z,84.41
2018-03-27T01:13:54.572Z,84.22
2018-03-27T01:14:54.564Z,84.78
2018-03-27T01:15:54.599Z,84.59
2018-03-27T01:16:54.539Z,84.59
2018-03-27T01:17:58.274Z,84.98
2018-03-27T01:18:54.525Z,85.93
2018-03-27T01:19:54.522Z,85.07
2018-03-27T01:20:54.514Z,84.41
2018-03-27T01:21:54.501Z,84.78
2018-03-27T01:22:54.500Z,84.31
2018-03-27T01:23:54.491Z,84.59
2018-03-27T01:24:54.483Z,84.69
2018-03-27T01:25:54.474Z,84.55
2018-03-27T01:26:54.470Z,84.50
2018-03-27T01:27:54.457Z,84.27
2018-03-27T01:28:54.499Z,84.50
2018-03-27T01:29:54.445Z,84.36
2018-03-27T01:30:54.443Z,84.36
2018-03-27T01:31:54.428Z,84.27
2018-03-27T01:32:54.420Z,84.27
2018-03-27T01:33:54.410Z,84.17
2018-03-27T01:34:54.405Z,84.65
2018-03-27T01:35:54.396Z,84.55
2018-03-27T01:36:54.386Z,84.65
2018-03-27T01:37:54.378Z,84.46
2018-03-27T01:38:54.368Z,84.36
2018-03-27T01:39:54.363Z,84.55
2018-03-27T01:40:54.352Z,84.08
2018-03-27T01:41:54.343Z,85.97
2018-03-27T01:42:54.342Z,85.69
2018-03-27T01:43:54.332Z,85.69
2018-03-27T01:44:54.319Z,85.60
2018-03-27T01:45:54.315Z,85.88
2018-03-27T01:46:54.313Z,85.88
2018-03-27T01:47:54.300Z,85.03
2018-03-27T01:48:54.294Z,85.69
2018-03-27T01:49:54.284Z,85.78
2018-03-27T01:50:54.284Z,85.41
2018-03-27T01:51:54.269Z,84.94
2018-03-27T01:52:54.260Z,85.03
2018-03-27T01:53:54.252Z,85.03
2018-03-27T01:54:54.245Z,85.22
2018-03-27T01:55:54.235Z,84.55
2018-03-27T01:56:54.226Z,84.65
2018-03-27T01:57:54.220Z,84.94
2018-03-27T01:58:54.212Z,85.78
2018-03-27T01:59:54.203Z,85.78
2018-03-27T02:00:54.195Z,84.46
2018-03-27T02:01:54.187Z,84.65
2018-03-27T02:02:54.197Z,85.88
2018-03-27T02:03:54.208Z,85.88
2018-03-27T02:04:54.175Z,85.69
2018-03-27T02:05:54.152Z,85.50
2018-03-27T02:06:54.146Z,84.94
2018-03-27T02:07:54.138Z,84.65
2018-03-27T02:08:54.132Z,84.94
2018-03-27T02:09:54.120Z,85.97
2018-03-27T02:10:54.113Z,86.55
2018-03-27T02:11:54.114Z,86.45
2018-03-27T02:12:54.102Z,86.45
2018-03-27T02:13:54.091Z,86.64
2018-03-27T02:14:54.085Z,86.64
2018-03-27T02:15:54.106Z,86.55
2018-03-27T02:16:54.067Z,87.30
2018-03-27T02:17:54.070Z,87.59
2018-03-27T02:18:54.052Z,87.49
2018-03-27T02:19:54.033Z,87.97
2018-03-27T02:20:54.032Z,87.21
2018-03-27T02:21:54.027Z,87.87
2018-03-27T02:22:54.015Z,87.97
2018-03-27T02:23:54.014Z,87.87
2018-03-27T02:24:54.001Z,87.30
2018-03-27T02:25:53.990Z,87.49
2018-03-27T02:26:53.988Z,86.16
2018-03-27T02:27:53.979Z,86.16
2018-03-27T02:28:53.970Z,86.35
2018-03-27T02:29:53.959Z,86.45
2018-03-27T02:30:53.951Z,86.83
2018-03-27T02:31:53.947Z,86.55
2018-03-27T02:32:53.939Z,85.69
2018-03-27T02:33:53.929Z,85.78
2018-03-27T02:34:53.988Z,85.50
2018-03-27T02:35:53.914Z,85.69
2018-03-27T02:36:53.909Z,85.69
2018-03-27T02:37:53.892Z,84.94
2018-03-27T02:38:53.895Z,84.46
2018-03-27T02:39:53.887Z,84.55
2018-03-27T02:40:53.872Z,85.50
2018-03-27T02:41:53.869Z,85.78
2018-03-27T02:43:53.858Z,86.55
2018-03-27T02:44:53.841Z,86.26
2018-03-27T02:45:53.837Z,85.78
2018-03-27T02:46:53.822Z,85.50
2018-03-27T02:47:53.813Z,85.78
2018-03-27T02:48:53.808Z,85.69
2018-03-27T02:49:53.799Z,84.36
2018-03-27T02:50:53.781Z,84.36
2018-03-27T02:51:53.783Z,85.03
2018-03-27T02:52:53.770Z,86.74
2018-03-27T02:53:53.764Z,85.60
2018-03-27T02:54:53.757Z,85.03
2018-03-27T02:55:53.750Z,84.46
2018-03-27T02:56:53.737Z,84.46
2018-03-27T02:57:53.729Z,84.55
2018-03-27T02:58:53.757Z,84.46
2018-03-27T02:59:53.717Z,84.55
2018-03-27T03:00:53.712Z,84.55
2018-03-27T03:01:53.696Z,84.94
2018-03-27T03:02:53.689Z,85.31
2018-03-27T03:03:53.692Z,85.69
2018-03-27T03:04:53.686Z,85.55
2018-03-27T03:05:53.668Z,85.88
2018-03-27T03:06:53.653Z,85.55
2018-03-27T03:07:53.652Z,85.74
2018-03-27T03:08:53.665Z,85.55
2018-03-27T03:09:53.641Z,86.12
2018-03-27T03:10:53.640Z,85.65
2018-03-27T03:11:53.625Z,86.22
2018-03-27T03:12:53.607Z,86.79
2018-03-27T03:13:53.599Z,86.88
2018-03-27T03:14:53.584Z,87.16
2018-03-27T03:15:53.577Z,87.35
2018-03-27T03:16:53.570Z,87.16
2018-03-27T03:17:53.562Z,87.45
2018-03-27T03:18:53.558Z,87.26
2018-03-27T03:19:53.556Z,88.87
2018-03-27T03:20:53.552Z,88.78
2018-03-27T03:21:53.532Z,88.78
2018-03-27T03:22:53.540Z,88.11
2018-03-27T03:23:53.519Z,88.11
2018-03-27T03:24:53.549Z,89.34
2018-03-27T03:25:53.491Z,88.68
2018-03-27T03:26:53.485Z,88.96
2018-03-27T03:27:53.479Z,89.53
2018-03-27T03:28:53.465Z,89.91
2018-03-27T03:29:53.467Z,89.34
2018-03-27T03:30:53.460Z,90.01
2018-03-27T03:31:53.447Z,89.25
2018-03-27T03:32:53.434Z,89.25
2018-03-27T03:33:53.433Z,89.34
2018-03-27T03:34:53.431Z,89.06
2018-03-27T03:35:53.409Z,89.72
2018-03-27T03:36:53.422Z,90.67
2018-03-27T03:37:53.396Z,90.20
2018-03-27T03:38:53.391Z,90.58
2018-03-27T03:39:53.393Z,90.95
2018-03-27T03:40:53.367Z,91.14
2018-03-27T03:41:53.362Z,90.91
2018-03-27T03:42:53.356Z,90.72
2018-03-27T03:43:53.340Z,92.00
2018-03-27T03:44:53.342Z,92.24
2018-03-27T03:45:53.327Z,91.71
2018-03-27T03:46:53.319Z,91.67
2018-03-27T03:47:53.310Z,91.67
2018-03-27T03:48:53.297Z,91.19
2018-03-27T03:49:53.296Z,91.43
2018-03-27T03:50:53.288Z,91.33
2018-03-27T03:51:53.284Z,91.10
2018-03-27T03:52:53.263Z,91.29
2018-03-27T03:53:53.262Z,91.62
2018-03-27T03:54:53.263Z,91.43
2018-03-27T03:55:53.244Z,91.29
2018-03-27T03:56:53.234Z,90.95
2018-03-27T03:57:53.223Z,90.95
2018-03-27T03:58:53.215Z,91.43
2018-03-27T03:59:53.210Z,91.33
2018-03-27T04:00:53.203Z,90.86
2018-03-27T04:01:53.189Z,90.86
2018-03-27T04:02:53.179Z,91.71
2018-03-27T04:03:53.174Z,91.43
2018-03-27T04:04:53.162Z,90.95
2018-03-27T04:05:53.161Z,91.33
2018-03-27T04:06:53.151Z,90.58
2018-03-27T04:07:53.139Z,90.95
2018-03-27T04:08:53.123Z,90.58
2018-03-27T04:09:53.120Z,90.20
2018-03-27T04:10:53.113Z,90.20
2018-03-27T04:11:53.112Z,90.20
2018-03-27T04:12:53.096Z,89.53
2018-03-27T04:13:53.089Z,89.72
2018-03-27T04:14:53.082Z,89.53
2018-03-27T04:15:53.071Z,89.25
2018-03-27T04:16:53.062Z,88.68
2018-03-27T04:17:53.050Z,89.44
2018-03-27T04:18:53.042Z,88.49
2018-03-27T04:19:53.049Z,88.78
2018-03-27T04:20:53.023Z,88.78
2018-03-27T04:21:53.017Z,89.25
2018-03-27T04:22:53.011Z,88.96
2018-03-27T04:23:53.003Z,89.06
2018-03-27T04:24:52.993Z,89.53
2018-03-27T04:25:52.983Z,89.53
2018-03-27T04:26:52.975Z,90.01
2018-03-27T04:27:52.968Z,89.63
2018-03-27T04:28:52.956Z,89.72
2018-03-27T04:29:52.950Z,89.44
2018-03-27T04:30:52.945Z,89.34
2018-03-27T04:31:52.933Z,89.82
2018-03-27T04:32:52.921Z,90.20
2018-03-27T04:33:52.915Z,90.58
2018-03-27T04:34:52.908Z,91.05
2018-03-27T04:35:52.899Z,91.33
2018-03-27T04:36:52.895Z,92.09
2018-03-27T04:37:52.882Z,92.57
2018-03-27T04:38:52.943Z,92.85
2018-03-27T04:39:52.874Z,93.13
2018-03-27T04:40:52.856Z,92.94
2018-03-27T04:41:52.847Z,92.66
2018-03-27T04:42:52.834Z,92.85
2018-03-27T04:43:52.835Z,92.94
2018-03-27T04:44:52.882Z,93.32
2018-03-27T04:45:52.814Z,93.13
2018-03-27T04:46:52.816Z,94.27
2018-03-27T04:47:52.792Z,94.51
2018-03-27T04:48:52.784Z,95.22
2018-03-27T04:49:52.821Z,95.07
2018-03-27T04:50:52.771Z,95.74
2018-03-27T04:51:52.767Z,95.74
2018-03-27T04:52:52.747Z,95.83
2018-03-27T04:53:52.740Z,95.45
2018-03-27T04:54:52.732Z,96.12
2018-03-27T04:55:52.728Z,95.64
2018-03-27T04:56:52.718Z,96.40
2018-03-27T04:57:52.706Z,97.16
2018-03-27T04:58:52.698Z,96.88
2018-03-27T04:59:52.688Z,96.97
2018-03-27T05:00:52.681Z,97.63
2018-03-27T05:01:52.672Z,97.82
2018-03-27T05:02:52.666Z,98.20
2018-03-27T05:03:52.654Z,98.20
2018-03-27T05:04:52.643Z,98.20
2018-03-27T05:05:52.636Z,98.58
2018-03-27T05:06:52.631Z,97.82
2018-03-27T05:07:52.619Z,98.30
2018-03-27T05:08:52.613Z,98.30
2018-03-27T05:09:52.600Z,99.05
2018-03-27T05:10:52.597Z,99.33
2018-03-27T05:11:52.584Z,99.15
2018-03-27T05:12:52.580Z,98.96
2018-03-27T05:13:52.579Z,99.05
2018-03-27T05:14:52.560Z,99.05
2018-03-27T05:15:52.553Z,99.24
2018-03-27T05:16:52.542Z,99.90
2018-03-27T05:17:52.531Z,99.33
2018-03-27T05:18:52.525Z,99.71
2018-03-27T05:19:52.514Z,99.71
2018-03-27T05:20:52.506Z,99.43
2018-03-27T05:21:52.499Z,98.96
2018-03-27T05:22:52.499Z,99.71
2018-03-27T05:23:52.489Z,99.99
2018-03-27T05:24:52.476Z,99.33
2018-03-27T05:25:52.463Z,99.99
2018-03-27T05:26:52.455Z,99.99
2018-03-27T05:27:52.447Z,99.71
2018-03-27T05:28:52.436Z,99.24
2018-03-27T05:29:52.427Z,98.77
2018-03-27T05:30:52.415Z,98.96
2018-03-27T05:31:52.413Z,98.77
2018-03-27T05:32:52.430Z,98.58
2018-03-27T05:33:52.387Z,98.96
2018-03-27T05:34:52.386Z,98.96
2018-03-27T05:35:52.377Z,99.62
2018-03-27T05:36:52.371Z,99.62
2018-03-27T05:37:52.357Z,99.71
2018-03-27T05:38:52.350Z,99.71
2018-03-27T05:39:52.348Z,99.52
2018-03-27T05:40:52.328Z,99.71
2018-03-27T05:41:52.321Z,99.71
2018-03-27T05:42:52.320Z,99.90
2018-03-27T05:43:52.301Z,99.99
2018-03-27T05:44:52.292Z,99.99
2018-03-27T05:45:52.285Z,99.99
2018-03-27T05:46:52.278Z,99.99
2018-03-27T05:47:52.269Z,99.99
2018-03-27T05:48:52.258Z,99.99
2018-03-27T05:49:52.253Z,99.99
2018-03-27T05:50:52.250Z,99.99
2018-03-27T05:51:52.276Z,99.99
2018-03-27T05:52:52.224Z,99.99
2018-03-27T05:53:52.215Z,99.99
2018-03-27T05:54:52.205Z,99.99
2018-03-27T05:55:52.253Z,99.99
2018-03-27T05:56:52.196Z,99.99
2018-03-27T05:57:52.181Z,99.99
2018-03-27T05:58:52.172Z,99.99
2018-03-27T05:59:52.164Z,99.99
2018-03-27T06:00:52.152Z,99.99
2018-03-27T06:01:52.145Z,99.99
2018-03-27T06:02:52.135Z,99.99
2018-03-27T06:03:52.126Z,99.99
2018-03-27T06:04:52.120Z,99.99
2018-03-27T06:05:52.108Z,99.99
2018-03-27T06:06:52.125Z,99.99
2018-03-27T06:07:52.092Z,99.99
2018-03-27T06:08:52.081Z,99.99
2018-03-27T06:09:52.073Z,99.99
2018-03-27T06:10:52.065Z,99.99
2018-03-27T06:11:52.061Z,99.99
2018-03-27T06:12:52.047Z,99.99
2018-03-27T06:13:52.042Z,99.99
2018-03-27T06:14:52.030Z,99.99
2018-03-27T06:15:52.019Z,99.77
2018-03-27T06:16:52.012Z,99.67
2018-03-27T06:17:52.005Z,99.39
2018-03-27T06:18:51.999Z,99.67
2018-03-27T06:19:51.987Z,98.63
2018-03-27T06:20:51.982Z,98.63
2018-03-27T06:21:51.967Z,97.87
2018-03-27T06:22:51.975Z,98.02
2018-03-27T06:23:51.954Z,98.02
2018-03-27T06:24:51.943Z,97.21
2018-03-27T06:25:51.936Z,96.59
2018-03-27T06:26:51.924Z,96.12
2018-03-27T06:27:51.918Z,96.12
2018-03-27T06:28:51.918Z,96.31
2018-03-27T06:29:51.902Z,96.41
2018-03-27T06:30:51.891Z,96.69
2018-03-27T06:31:51.892Z,96.59
2018-03-27T06:32:51.874Z,95.93
2018-03-27T06:33:51.911Z,96.22
2018-03-27T06:34:51.857Z,96.03
2018-03-27T06:35:51.851Z,95.55
2018-03-27T06:36:52.777Z,94.89
2018-03-27T06:37:51.868Z,94.60
2018-03-27T06:38:51.830Z,95.17
2018-03-27T06:39:51.819Z,95.45
2018-03-27T06:40:51.807Z,95.93
2018-03-27T06:41:51.796Z,96.22
2018-03-27T06:42:51.794Z,96.22
2018-03-27T06:43:51.783Z,95.65
2018-03-27T06:44:51.775Z,95.98
2018-03-27T06:45:51.775Z,95.60
2018-03-27T06:46:51.758Z,95.17
2018-03-27T06:47:51.758Z,94.93
2018-03-27T06:48:51.766Z,93.41
2018-03-27T06:49:51.733Z,93.61
2018-03-27T06:50:51.725Z,93.23
2018-03-27T06:51:51.718Z,93.32
2018-03-27T06:52:51.709Z,93.99
2018-03-27T06:53:51.705Z,94.27
2018-03-27T06:54:51.694Z,93.99
2018-03-27T06:55:51.685Z,93.99
2018-03-27T06:56:51.672Z,94.27
2018-03-27T06:57:51.667Z,93.99
2018-03-27T06:58:51.664Z,94.65
2018-03-27T06:59:51.652Z,95.03
2018-03-27T07:00:51.646Z,95.22
2018-03-27T07:01:51.653Z,95.88
2018-03-27T07:02:51.623Z,95.60
2018-03-27T07:03:51.649Z,95.69
2018-03-27T07:04:51.681Z,94.93
2018-03-27T07:05:51.605Z,95.26
2018-03-27T07:06:51.593Z,95.74
2018-03-27T07:07:51.586Z,95.50
2018-03-27T07:08:51.595Z,95.03
2018-03-27T07:09:51.568Z,95.03
2018-03-27T07:10:51.557Z,94.93
2018-03-27T07:11:51.550Z,94.46
2018-03-27T07:12:51.545Z,94.46
2018-03-27T07:13:51.545Z,94.84
2018-03-27T07:14:51.526Z,95.03
2018-03-27T07:15:51.556Z,95.03
2018-03-27T07:16:51.534Z,95.03
2018-03-27T07:17:51.498Z,95.31
2018-03-27T07:18:51.534Z,94.65
2018-03-27T07:19:51.512Z,94.08
2018-03-27T07:20:51.498Z,93.61
2018-03-27T07:21:51.472Z,93.80
2018-03-27T07:22:51.467Z,93.23
2018-03-27T07:23:51.453Z,93.89
2018-03-27T07:24:51.445Z,93.27
2018-03-27T07:25:51.438Z,93.08
2018-03-27T07:26:51.438Z,93.27
2018-03-27T07:27:51.421Z,92.99
2018-03-27T07:28:51.410Z,93.27
2018-03-27T07:29:51.404Z,93.27
2018-03-27T07:30:51.396Z,92.71
2018-03-27T07:31:51.389Z,92.52
2018-03-27T07:32:51.380Z,91.56
2018-03-27T07:33:51.371Z,91.00
2018-03-27T07:34:51.368Z,91.00
2018-03-27T07:35:51.359Z,91.28
2018-03-27T07:36:51.350Z,91.75
2018-03-27T07:37:51.341Z,91.94
2018-03-27T07:38:51.334Z,92.33
2018-03-27T07:39:51.333Z,91.75
2018-03-27T07:40:51.326Z,91.71
2018-03-27T07:41:51.311Z,92.09
2018-03-27T07:42:51.304Z,91.71
2018-03-27T07:43:51.293Z,91.71
2018-03-27T07:44:51.320Z,91.14
2018-03-27T07:45:51.281Z,90.85
2018-03-27T07:46:51.273Z,89.90
2018-03-27T07:47:51.260Z,89.24
2018-03-27T07:48:51.258Z,89.43
2018-03-27T07:49:51.250Z,88.95
2018-03-27T07:50:51.243Z,88.67
2018-03-27T07:51:51.237Z,88.29
2018-03-27T07:52:51.226Z,88.67
2018-03-27T07:53:51.219Z,89.09
2018-03-27T07:54:51.211Z,88.34
2018-03-27T07:55:51.205Z,88.53
2018-03-27T07:56:51.198Z,88.43
2018-03-27T07:57:51.196Z,88.43
2018-03-27T07:58:51.191Z,87.76
2018-03-27T07:59:51.177Z,87.48
2018-03-27T08:00:51.167Z,87.76
2018-03-27T08:01:51.160Z,88.34
2018-03-27T08:02:51.155Z,88.34
2018-03-27T08:03:51.147Z,88.53
2018-03-27T08:04:51.141Z,88.53
2018-03-27T08:05:51.132Z,89.00
2018-03-27T08:06:51.126Z,89.57
2018-03-27T08:07:51.118Z,89.38
2018-03-27T08:08:51.106Z,88.76
2018-03-27T08:09:51.101Z,88.76
2018-03-27T08:10:51.099Z,88.38
2018-03-27T08:11:51.091Z,87.43
2018-03-27T08:12:51.081Z,86.76
2018-03-27T08:13:51.073Z,86.29
2018-03-27T08:14:51.066Z,86.47
2018-03-27T08:15:51.060Z,86.29
2018-03-27T08:16:51.053Z,86.10
2018-03-27T08:17:51.049Z,86.10
2018-03-27T08:18:51.036Z,84.77
2018-03-27T08:19:51.031Z,85.62
2018-03-27T08:20:51.047Z,85.05
2018-03-27T08:21:51.023Z,84.67
2018-03-27T08:22:51.009Z,85.15
2018-03-27T08:23:51.001Z,85.62
2018-03-27T08:24:50.993Z,85.62
2018-03-27T08:25:51.000Z,85.43
2018-03-27T08:26:50.991Z,85.95
2018-03-27T08:27:50.981Z,85.47
2018-03-27T08:28:50.966Z,84.52
2018-03-27T08:29:50.961Z,83.48
2018-03-27T08:30:50.957Z,83.39
2018-03-27T08:31:50.957Z,83.76
2018-03-27T08:32:50.963Z,84.72
2018-03-27T08:33:50.935Z,83.76
2018-03-27T08:34:50.926Z,83.58
2018-03-27T08:35:50.922Z,83.48
2018-03-27T08:36:50.916Z,83.58
2018-03-27T08:37:50.908Z,83.48
2018-03-27T08:38:50.908Z,83.48
2018-03-27T08:39:50.902Z,82.34
2018-03-27T08:40:50.911Z,81.10
2018-03-27T08:41:50.883Z,79.68
2018-03-27T08:42:50.876Z,79.58
2018-03-27T08:43:50.873Z,79.58
2018-03-27T08:44:50.862Z,79.20
2018-03-27T08:45:50.857Z,78.86
2018-03-27T08:46:50.850Z,78.48
2018-03-27T08:47:50.845Z,77.91
2018-03-27T08:48:50.840Z,78.29
2018-03-27T08:49:50.832Z,78.19
2018-03-27T08:50:50.822Z,78.10
2018-03-27T08:51:50.820Z,78.29
2018-03-27T08:52:50.810Z,78.19
2018-03-27T08:53:50.813Z,78.19
2018-03-27T08:54:50.804Z,78.10
2018-03-27T08:55:50.793Z,77.85
2018-03-27T08:56:50.788Z,77.85
2018-03-27T08:57:50.783Z,76.52
2018-03-27T08:58:50.774Z,75.28
2018-03-27T08:59:50.787Z,74.24
2018-03-27T09:00:50.759Z,73.66
2018-03-27T09:01:50.756Z,73.66
2018-03-27T09:02:50.747Z,73.66
2018-03-27T09:03:50.748Z,73.00
2018-03-27T09:04:50.735Z,73.13
2018-03-27T09:05:50.724Z,73.03
2018-03-27T09:06:50.722Z,73.10
2018-03-27T09:07:50.717Z,72.65
2018-03-27T09:08:50.710Z,71.98
2018-03-27T09:09:50.709Z,71.51
2018-03-27T09:10:50.699Z,71.13
2018-03-27T09:11:50.699Z,71.51
2018-03-27T09:12:50.686Z,70.65
2018-03-27T09:13:50.684Z,69.99
2018-03-27T09:14:50.678Z,70.84
2018-03-27T09:15:50.673Z,70.94
2018-03-27T09:16:50.663Z,71.42
2018-03-27T09:17:50.656Z,71.98
2018-03-27T09:18:50.652Z,72.17
2018-03-27T09:19:50.647Z,72.85
2018-03-27T09:20:50.635Z,71.32
2018-03-27T09:21:50.632Z,71.03
2018-03-27T09:22:50.636Z,72.17
2018-03-27T09:23:50.621Z,71.89
2018-03-27T09:24:50.617Z,71.42
2018-03-27T09:25:50.608Z,70.84
2018-03-27T09:26:50.604Z,70.47
2018-03-27T09:27:50.595Z,71.22
2018-03-27T09:28:50.594Z,70.78
2018-03-27T09:29:50.587Z,70.88
2018-03-27T09:30:50.580Z,71.17
2018-03-27T09:31:50.574Z,69.83
2018-03-27T09:32:50.567Z,69.17
2018-03-27T09:33:50.568Z,68.59
2018-03-27T09:34:50.557Z,68.72
2018-03-27T09:35:50.554Z,68.53
2018-03-27T09:36:50.550Z,68.15
2018-03-27T09:37:50.541Z,67.86
2018-03-27T09:38:50.537Z,67.20
2018-03-27T09:39:50.532Z,66.72
2018-03-27T09:40:50.524Z,66.34
2018-03-27T09:41:50.522Z,65.77
2018-03-27T09:42:50.517Z,65.20
2018-03-27T09:43:50.505Z,65.39
2018-03-27T09:44:50.508Z,66.63
2018-03-27T09:45:50.502Z,65.86
2018-03-27T09:46:50.490Z,66.05
2018-03-27T09:47:50.489Z,65.77
2018-03-27T09:48:50.496Z,66.91
2018-03-27T09:49:50.480Z,68.05
2018-03-27T09:50:50.474Z,68.24
2018-03-27T09:51:50.472Z,67.68
2018-03-27T09:52:50.461Z,67.77
2018-03-27T09:53:50.461Z,68.12
2018-03-27T09:54:50.459Z,68.88
2018-03-27T09:55:50.453Z,68.78
2018-03-27T09:56:50.439Z,68.98
2018-03-27T09:57:50.437Z,68.98
2018-03-27T09:58:50.434Z,68.88
2018-03-27T09:59:50.430Z,69.26
2018-03-27T10:00:50.435Z,70.02
2018-03-27T10:01:50.419Z,70.50
2018-03-27T10:02:50.415Z,71.26
2018-03-27T10:03:50.408Z,70.97
2018-03-27T10:04:50.403Z,70.31
2018-03-27T10:05:50.397Z,70.40
2018-03-27T10:06:50.394Z,71.17
2018-03-27T10:07:50.389Z,70.40
2018-03-27T10:08:50.412Z,70.21
2018-03-27T10:09:50.378Z,70.31
2018-03-27T10:10:50.375Z,70.40
2018-03-27T10:11:50.365Z,70.50
2018-03-27T10:12:50.367Z,70.12
2018-03-27T10:13:50.348Z,69.64
2018-03-27T10:14:50.353Z,70.12
2018-03-27T10:15:50.385Z,70.31
2018-03-27T10:16:50.343Z,70.40
2018-03-27T10:17:50.339Z,70.97
2018-03-27T10:18:50.332Z,70.69
2018-03-27T10:19:50.333Z,72.02
2018-03-27T10:20:50.326Z,71.36
2018-03-27T10:21:50.314Z,71.36
2018-03-27T10:22:50.315Z,71.64
2018-03-27T10:23:50.307Z,70.97
2018-03-27T10:24:50.302Z,70.88
2018-03-27T10:25:50.298Z,71.64
2018-03-27T10:26:50.292Z,72.12
2018-03-27T10:27:50.290Z,71.55
2018-03-27T10:28:50.283Z,71.26
2018-03-27T10:29:50.275Z,71.73
2018-03-27T10:30:50.272Z,71.83
2018-03-27T10:31:50.286Z,71.93
2018-03-27T10:32:50.258Z,71.55
2018-03-27T10:33:50.256Z,71.55
2018-03-27T10:34:50.263Z,70.88
2018-03-27T10:35:50.264Z,71.36
2018-03-27T10:36:50.302Z,72.21
2018-03-27T10:37:50.260Z,72.25
2018-03-27T10:38:50.266Z,72.34
2018-03-27T10:39:50.224Z,71.96
2018-03-27T10:40:50.232Z,71.36
2018-03-27T10:41:50.218Z,71.55
2018-03-27T10:42:50.208Z,72.02
2018-03-27T10:43:50.234Z,72.69
2018-03-27T10:44:50.206Z,72.92
2018-03-27T10:45:50.208Z,72.31
2018-03-27T10:46:50.201Z,71.93
2018-03-27T10:47:50.197Z,71.55
2018-03-27T10:48:50.244Z,72.12
2018-03-27T10:49:50.178Z,71.07
2018-03-27T10:50:50.170Z,72.02
2018-03-27T10:51:50.171Z,72.31
2018-03-27T10:52:50.160Z,71.83
2018-03-27T10:53:50.158Z,71.83
2018-03-27T10:54:50.151Z,71.83
2018-03-27T10:55:50.178Z,71.93
2018-03-27T10:56:50.142Z,72.44
2018-03-27T10:57:50.136Z,72.34
2018-03-27T10:58:50.170Z,71.39
2018-03-27T10:59:50.135Z,71.58
2018-03-27T11:00:50.210Z,71.11
2018-03-27T11:01:50.123Z,71.20
2018-03-27T11:02:50.108Z,70.92
2018-03-27T11:03:50.132Z,70.53
2018-03-27T11:04:50.100Z,69.48
2018-03-27T11:05:50.096Z,68.82
2018-03-27T11:06:50.114Z,69.01
2018-03-27T11:07:50.084Z,69.58
2018-03-27T11:08:50.119Z,69.10
2018-03-27T11:09:50.076Z,68.72
2018-03-27T11:10:50.072Z,68.82
2018-03-27T11:11:50.076Z,69.48
2018-03-27T11:12:50.058Z,68.63
2018-03-27T11:13:50.055Z,68.44
2018-03-27T11:14:50.062Z,68.91
2018-03-27T11:15:50.069Z,68.91
2018-03-27T11:16:50.039Z,69.20
2018-03-27T11:17:50.061Z,69.39
2018-03-27T11:18:50.035Z,69.39
2018-03-27T11:19:50.036Z,69.39
2018-03-27T11:20:50.068Z,69.87
2018-03-27T11:21:50.032Z,69.48
2018-03-27T11:22:50.054Z,70.25
2018-03-27T11:23:50.058Z,69.39
2018-03-27T11:24:50.009Z,69.29
2018-03-27T11:25:49.995Z,68.82
2018-03-27T11:26:49.997Z,68.15
2018-03-27T11:27:49.999Z,68.69
2018-03-27T11:28:49.982Z,68.50
2018-03-27T11:29:49.973Z,68.40
2018-03-27T11:30:49.975Z,68.98
2018-03-27T11:31:49.973Z,69.54
2018-03-27T11:32:49.990Z,69.74
2018-03-27T11:33:49.954Z,70.21
2018-03-27T11:34:49.947Z,70.69
2018-03-27T11:35:49.952Z,70.69
2018-03-27T11:36:49.942Z,71.26
2018-03-27T11:37:49.986Z,71.26
2018-03-27T11:38:49.963Z,72.31
2018-03-27T11:39:49.933Z,73.65
2018-03-27T11:40:49.923Z,73.74
2018-03-27T11:41:49.911Z,72.78
2018-03-27T11:42:49.915Z,72.78
2018-03-27T11:43:49.920Z,73.26
2018-03-27T11:44:49.925Z,72.69
2018-03-27T11:45:49.900Z,73.17
2018-03-27T11:46:49.903Z,73.83
2018-03-27T11:47:49.942Z,73.83
2018-03-27T11:48:49.885Z,72.21
2018-03-27T11:49:49.878Z,72.69
2018-03-27T11:50:49.874Z,71.83
2018-03-27T11:51:49.864Z,71.36
2018-03-27T11:52:49.871Z,71.93
2018-03-27T11:53:49.848Z,72.02
2018-03-27T11:54:49.852Z,71.26
2018-03-27T11:55:49.842Z,72.02
2018-03-27T11:56:49.848Z,72.21
2018-03-27T11:57:49.836Z,71.36
2018-03-27T11:58:49.828Z,71.26
2018-03-27T11:59:49.852Z,72.02
2018-03-27T12:00:49.850Z,71.48
2018-03-27T12:01:49.801Z,70.40
2018-03-27T12:02:49.804Z,70.44
2018-03-27T12:03:49.805Z,70.92
2018-03-27T12:04:49.796Z,71.11
2018-03-27T12:05:49.797Z,71.68
2018-03-27T12:06:49.814Z,71.01
2018-03-27T12:07:49.789Z,70.44
2018-03-27T12:08:49.805Z,69.77
2018-03-27T12:09:49.770Z,68.63
2018-03-27T12:10:49.773Z,68.63
2018-03-27T12:11:49.764Z,69.39
2018-03-27T12:12:49.760Z,69.04
2018-03-27T12:13:49.757Z,69.04
2018-03-27T12:14:49.750Z,68.28
2018-03-27T12:15:49.744Z,67.90
2018-03-27T12:16:49.740Z,67.80
2018-03-27T12:17:49.739Z,66.38
2018-03-27T12:18:49.733Z,65.80
2018-03-27T12:19:49.734Z,65.42
2018-03-27T12:20:49.722Z,65.36
2018-03-27T12:21:49.719Z,65.74
2018-03-27T12:22:49.720Z,65.45
2018-03-27T12:23:49.711Z,64.88
2018-03-27T12:24:49.703Z,64.40
2018-03-27T12:25:49.700Z,64.53
2018-03-27T12:26:49.692Z,64.81
2018-03-27T12:27:49.696Z,64.72
2018-03-27T12:28:49.689Z,63.76
2018-03-27T12:29:49.690Z,63.57
2018-03-27T12:30:49.680Z,63.29
2018-03-27T12:31:49.678Z,63.23
2018-03-27T12:32:49.674Z,63.13
2018-03-27T12:33:49.678Z,61.89
2018-03-27T12:34:49.666Z,61.60
2018-03-27T12:35:49.666Z,61.69
2018-03-27T12:36:49.659Z,61.66
2018-03-27T12:37:49.694Z,62.05
2018-03-27T12:38:49.652Z,61.66
2018-03-27T12:39:49.648Z,61.66
2018-03-27T12:40:49.657Z,61.51
2018-03-27T12:41:49.642Z,61.03
2018-03-27T12:42:49.641Z,60.39
2018-03-27T12:43:49.659Z,60.58
2018-03-27T12:44:49.629Z,58.00
2018-03-27T12:45:49.629Z,57.90
2018-03-27T12:46:49.626Z,58.10
2018-03-27T12:47:49.619Z,58.22
2018-03-27T12:48:49.618Z,58.22
2018-03-27T12:49:49.617Z,58.41
2018-03-27T12:50:49.614Z,57.97
2018-03-27T12:51:49.615Z,57.26
2018-03-27T12:52:49.609Z,57.84
2018-03-27T12:53:49.607Z,58.00